ANTO2: Kiamichi River, Antlers, OKla

                                SHEF ID:       ANTO2     Kiamichi River near Antlers, OK
STATION TYPE:
Regulating: Stage = 22.00, Flow = 20000

PRECIP PRECIP(A) STAGE RIV-FLOW BAT-LOAD
in in ft cfs volt
Ccp-Rev Ccp-Rev Ccp-Rev Ccp-Rev Ccp-Rev
(America/Chicago)
04/26 00:00 0.01 ---- 6.13 1510 12.59
04/26 01:00 0.00 ---- 6.35 1630 12.57
04/26 02:00 0.00 ---- 6.57 1760 12.55
04/26 03:00 0.00 ---- 6.73 1860 12.53
04/26 04:00 0.00 ---- 6.81 1910 12.53
04/26 05:00 0.01 ---- 6.77 1890 12.50
04/26 06:00 0.03 ---- 6.79 1900 12.48
04/26 07:00 0.01 ---- 6.73 1860 12.47
04/26 08:00 0.00 ---- 6.64 1800 12.52
04/26 09:00 0.00 ---- 6.55 1750 12.64
04/26 10:00 0.00 ---- 6.45 1690 12.88
04/26 11:00 0.00 ---- 6.35 1630 13.10
04/26 12:00 0.00 ---- 6.26 1580 13.18
04/26 13:00 0.00 ---- 6.17 1530 13.17
04/26 14:00 0.00 ---- 6.08 1480 13.08
04/26 15:00 0.00 ---- 5.99 1430 13.01
04/26 16:00 0.00 ---- 5.88 1370 12.95
04/26 17:00 0.00 ---- 5.85 1350 12.89
04/26 18:00 0.00 ---- 5.78 1320 12.88
04/26 19:00 0.00 ---- 5.72 1280 12.86
04/26 20:00 0.00 ---- 5.66 1250 12.77
04/26 21:00 0.00 ---- 5.61 1220 12.67
04/26 22:00 0.00 ---- 5.58 1210 12.63
04/26 23:00 ---- ---- ---- ---- ----
Data processed at Mon 27Apr2026 04:32 GMT

NOTICE: If you are parsing this page

Please convert to using our Data API. Starting early 2026 we will be migrating to: https://water.usace.army.mil with modern pages rendered in JavaScript. When this migration completes you will no longer be able to scrape this page! CWMSDataAPI (CDA)

Timeseries IDs (TSIDs)

TSIDs used from left to right in the data table
ANTL.Precip-Inc.Total.1Hour.1Hour.Ccp-Rev
ANTL.Precip-Inc Alt.Total.1Hour.1Hour.Ccp-Rev
ANTL.Stage.Inst.1Hour.0.Ccp-Rev
ANTL.Flow.Inst.1Hour.0.Ccp-Rev
ANTL.Volt-Battery Load.Inst.1Hour.0.Ccp-Rev

                            

All information presented herein is the property of the government of the United States of America and may be revised or deleted at any time without prior notice. Dissemination of this information without the expressed written consent of the Public Affairs Office, Tulsa District U.S. Army Corps of Engineers is strictly prohibited. These data are gathered electronically and, as presented, have NOT undergone any form of quality control. These data are NOT guaranteed to be valid or correct.